sensor_id;sensor_type;location;lat;lon;timestamp;pressure;altitude;pressure_sealevel;temperature;humidity
15670;BME280;18524;45.190;5.732;2023-04-04T00:00:19;99118.38;;;9.40;61.33
15670;BME280;18524;45.190;5.732;2023-04-04T00:05:10;99119.56;;;9.36;61.74
15670;BME280;18524;45.190;5.732;2023-04-04T00:10:00;99116.47;;;9.42;61.07
15670;BME280;18524;45.190;5.732;2023-04-04T00:14:51;99115.41;;;9.45;60.89
15670;BME280;18524;45.190;5.732;2023-04-04T00:19:41;99119.81;;;9.44;60.95
15670;BME280;18524;45.190;5.732;2023-04-04T00:24:31;99110.88;;;9.47;61.25
15670;BME280;18524;45.190;5.732;2023-04-04T00:29:22;99113.03;;;9.53;60.50
15670;BME280;18524;45.190;5.732;2023-04-04T00:34:13;99100.53;;;9.45;60.54
15670;BME280;18524;45.190;5.732;2023-04-04T00:39:03;99103.38;;;9.31;61.30
15670;BME280;18524;45.190;5.732;2023-04-04T00:43:54;99103.25;;;9.32;61.79
15670;BME280;18524;45.190;5.732;2023-04-04T00:48:46;99106.59;;;9.34;62.28
15670;BME280;18524;45.190;5.732;2023-04-04T00:53:37;99096.69;;;9.27;62.44
15670;BME280;18524;45.190;5.732;2023-04-04T00:58:28;99102.53;;;9.30;61.51
15670;BME280;18524;45.190;5.732;2023-04-04T01:03:19;99098.25;;;9.40;62.12
15670;BME280;18524;45.190;5.732;2023-04-04T01:08:09;99087.19;;;9.37;61.53
15670;BME280;18524;45.190;5.732;2023-04-04T01:13:01;99096.84;;;9.36;61.59
15670;BME280;18524;45.190;5.732;2023-04-04T01:17:55;99082.44;;;9.31;62.09
15670;BME280;18524;45.190;5.732;2023-04-04T01:22:48;99077.91;;;9.33;61.98
15670;BME280;18524;45.190;5.732;2023-04-04T01:27:39;99081.69;;;9.29;63.15
15670;BME280;18524;45.190;5.732;2023-04-04T01:32:43;99089.53;;;9.29;61.91
15670;BME280;18524;45.190;5.732;2023-04-04T01:37:35;99082.75;;;9.26;62.49
15670;BME280;18524;45.190;5.732;2023-04-04T01:42:28;99079.41;;;9.24;62.63
15670;BME280;18524;45.190;5.732;2023-04-04T01:47:19;99077.88;;;9.11;63.72
15670;BME280;18524;45.190;5.732;2023-04-04T01:52:09;99079.78;;;9.20;62.08
15670;BME280;18524;45.190;5.732;2023-04-04T01:56:59;99076.09;;;9.11;62.21
15670;BME280;18524;45.190;5.732;2023-04-04T02:01:50;99085.72;;;9.11;62.67
15670;BME280;18524;45.190;5.732;2023-04-04T02:06:40;99075.00;;;9.02;63.06
15670;BME280;18524;45.190;5.732;2023-04-04T02:11:31;99082.72;;;9.04;62.96
15670;BME280;18524;45.190;5.732;2023-04-04T02:16:22;99085.00;;;9.08;62.26
15670;BME280;18524;45.190;5.732;2023-04-04T02:21:12;99073.44;;;9.00;64.16
15670;BME280;18524;45.190;5.732;2023-04-04T02:26:03;99075.13;;;9.01;63.07
15670;BME280;18524;45.190;5.732;2023-04-04T02:30:53;99071.41;;;8.92;63.28
15670;BME280;18524;45.190;5.732;2023-04-04T02:35:43;99071.06;;;8.97;63.43
15670;BME280;18524;45.190;5.732;2023-04-04T02:40:34;99078.75;;;8.87;64.42
15670;BME280;18524;45.190;5.732;2023-04-04T02:45:28;99075.19;;;8.88;63.48
15670;BME280;18524;45.190;5.732;2023-04-04T02:50:18;99067.03;;;8.93;63.33
15670;BME280;18524;45.190;5.732;2023-04-04T02:55:09;99077.69;;;8.90;64.45
15670;BME280;18524;45.190;5.732;2023-04-04T03:00:00;99074.78;;;8.70;63.63
15670;BME280;18524;45.190;5.732;2023-04-04T03:04:52;99059.94;;;8.71;64.32
15670;BME280;18524;45.190;5.732;2023-04-04T03:09:42;99067.91;;;8.81;63.87
15670;BME280;18524;45.190;5.732;2023-04-04T03:14:34;99064.13;;;8.85;63.80
15670;BME280;18524;45.190;5.732;2023-04-04T03:19:24;99069.66;;;8.69;63.98
15670;BME280;18524;45.190;5.732;2023-04-04T03:24:15;99059.69;;;8.74;64.57
15670;BME280;18524;45.190;5.732;2023-04-04T03:29:05;99064.09;;;8.73;63.35
15670;BME280;18524;45.190;5.732;2023-04-04T03:33:56;99066.34;;;8.67;64.47
15670;BME280;18524;45.190;5.732;2023-04-04T03:38:46;99064.19;;;8.72;63.85
15670;BME280;18524;45.190;5.732;2023-04-04T03:43:37;99069.19;;;8.64;64.52
15670;BME280;18524;45.190;5.732;2023-04-04T03:48:28;99060.72;;;8.60;64.62
15670;BME280;18524;45.190;5.732;2023-04-04T03:53:18;99071.78;;;8.64;65.67
15670;BME280;18524;45.190;5.732;2023-04-04T03:58:09;99073.22;;;8.68;64.50
15670;BME280;18524;45.190;5.732;2023-04-04T04:02:59;99076.56;;;8.70;64.25
15670;BME280;18524;45.190;5.732;2023-04-04T04:07:50;99063.16;;;8.51;65.08
15670;BME280;18524;45.190;5.732;2023-04-04T04:12:41;99072.91;;;8.49;64.74
15670;BME280;18524;45.190;5.732;2023-04-04T04:17:32;99073.50;;;8.52;64.80
15670;BME280;18524;45.190;5.732;2023-04-04T04:22:22;99073.50;;;8.52;64.43
15670;BME280;18524;45.190;5.732;2023-04-04T04:27:13;99066.56;;;8.40;65.34
15670;BME280;18524;45.190;5.732;2023-04-04T04:32:03;99076.91;;;8.41;65.96
15670;BME280;18524;45.190;5.732;2023-04-04T04:36:54;99076.69;;;8.44;65.45
15670;BME280;18524;45.190;5.732;2023-04-04T04:41:44;99075.84;;;8.44;65.16
15670;BME280;18524;45.190;5.732;2023-04-04T04:46:34;99084.84;;;8.40;67.06
15670;BME280;18524;45.190;5.732;2023-04-04T04:51:25;99088.56;;;8.49;64.80
15670;BME280;18524;45.190;5.732;2023-04-04T04:56:15;99087.22;;;8.56;64.87
15670;BME280;18524;45.190;5.732;2023-04-04T05:01:05;99092.03;;;8.49;64.87
15670;BME280;18524;45.190;5.732;2023-04-04T05:05:56;99096.88;;;8.42;65.84
15670;BME280;18524;45.190;5.732;2023-04-04T05:10:48;99095.47;;;8.50;66.19
15670;BME280;18524;45.190;5.732;2023-04-04T05:15:39;99095.31;;;8.64;64.27
15670;BME280;18524;45.190;5.732;2023-04-04T05:20:30;99090.97;;;8.52;65.32
15670;BME280;18524;45.190;5.732;2023-04-04T05:25:21;99099.97;;;8.48;64.85
15670;BME280;18524;45.190;5.732;2023-04-04T05:30:11;99097.13;;;8.51;64.20
15670;BME280;18524;45.190;5.732;2023-04-04T05:35:02;99106.38;;;8.43;65.60
15670;BME280;18524;45.190;5.732;2023-04-04T05:39:52;99110.66;;;8.44;64.47
15670;BME280;18524;45.190;5.732;2023-04-04T05:44:43;99120.09;;;8.34;64.74
15670;BME280;18524;45.190;5.732;2023-04-04T05:49:33;99123.66;;;8.33;65.84
15670;BME280;18524;45.190;5.732;2023-04-04T05:54:24;99129.38;;;8.38;64.86
15670;BME280;18524;45.190;5.732;2023-04-04T05:59:14;99132.94;;;8.37;64.08
15670;BME280;18524;45.190;5.732;2023-04-04T06:04:05;99137.94;;;8.40;64.34
15670;BME280;18524;45.190;5.732;2023-04-04T06:08:56;99125.16;;;8.49;64.81
15670;BME280;18524;45.190;5.732;2023-04-04T06:13:46;99125.59;;;8.55;64.07
15670;BME280;18524;45.190;5.732;2023-04-04T06:18:36;99144.63;;;8.44;63.53
15670;BME280;18524;45.190;5.732;2023-04-04T06:23:27;99146.97;;;8.36;63.92
15670;BME280;18524;45.190;5.732;2023-04-04T06:28:17;99150.63;;;8.34;63.79
15670;BME280;18524;45.190;5.732;2023-04-04T06:33:07;99148.94;;;8.33;62.71
15670;BME280;18524;45.190;5.732;2023-04-04T06:37:58;99156.75;;;8.33;63.02
15670;BME280;18524;45.190;5.732;2023-04-04T06:42:49;99156.75;;;8.45;63.17
15670;BME280;18524;45.190;5.732;2023-04-04T06:47:41;99167.53;;;8.41;62.96
15670;BME280;18524;45.190;5.732;2023-04-04T06:52:31;99170.31;;;8.51;62.19
15670;BME280;18524;45.190;5.732;2023-04-04T06:57:22;99173.53;;;8.54;62.84
15670;BME280;18524;45.190;5.732;2023-04-04T07:02:12;99170.84;;;8.56;63.14
15670;BME280;18524;45.190;5.732;2023-04-04T07:07:03;99180.75;;;8.63;62.18
15670;BME280;18524;45.190;5.732;2023-04-04T07:11:53;99178.53;;;8.70;61.47
15670;BME280;18524;45.190;5.732;2023-04-04T07:16:43;99190.06;;;8.55;61.97
15670;BME280;18524;45.190;5.732;2023-04-04T07:21:34;99179.59;;;8.55;63.41
15670;BME280;18524;45.190;5.732;2023-04-04T07:26:24;99186.97;;;8.73;60.84
15670;BME280;18524;45.190;5.732;2023-04-04T07:31:15;99192.53;;;8.69;62.18
15670;BME280;18524;45.190;5.732;2023-04-04T07:36:05;99192.44;;;8.70;61.72
15670;BME280;18524;45.190;5.732;2023-04-04T07:40:55;99196.81;;;8.70;61.47
15670;BME280;18524;45.190;5.732;2023-04-04T07:45:46;99201.09;;;8.71;61.27
15670;BME280;18524;45.190;5.732;2023-04-04T07:50:36;99192.94;;;8.75;60.88
15670;BME280;18524;45.190;5.732;2023-04-04T07:55:27;99196.38;;;8.76;60.50
15670;BME280;18524;45.190;5.732;2023-04-04T08:00:18;99191.81;;;8.91;60.81
15670;BME280;18524;45.190;5.732;2023-04-04T08:05:10;99191.31;;;8.86;60.73
15670;BME280;18524;45.190;5.732;2023-04-04T08:10:01;99189.53;;;8.86;60.93
15670;BME280;18524;45.190;5.732;2023-04-04T08:14:51;99196.94;;;8.92;60.02
15670;BME280;18524;45.190;5.732;2023-04-04T08:19:42;99195.06;;;8.94;59.68
15670;BME280;18524;45.190;5.732;2023-04-04T08:24:33;99198.16;;;8.99;60.71
15670;BME280;18524;45.190;5.732;2023-04-04T08:29:23;99204.16;;;9.13;59.25
15670;BME280;18524;45.190;5.732;2023-04-04T08:34:14;99203.47;;;9.22;58.43
15670;BME280;18524;45.190;5.732;2023-04-04T08:39:04;99207.09;;;9.32;58.69
15670;BME280;18524;45.190;5.732;2023-04-04T08:43:56;99214.03;;;9.44;58.42
15670;BME280;18524;45.190;5.732;2023-04-04T08:48:51;99218.91;;;9.49;57.29
15670;BME280;18524;45.190;5.732;2023-04-04T08:53:42;99218.69;;;9.63;57.16
15670;BME280;18524;45.190;5.732;2023-04-04T08:58:32;99229.56;;;9.69;57.12
15670;BME280;18524;45.190;5.732;2023-04-04T09:03:24;99233.16;;;9.68;57.71
15670;BME280;18524;45.190;5.732;2023-04-04T09:08:17;99235.19;;;9.76;56.56
15670;BME280;18524;45.190;5.732;2023-04-04T09:13:07;99238.03;;;9.84;57.60
15670;BME280;18524;45.190;5.732;2023-04-04T09:17:58;99246.38;;;9.89;55.95
15670;BME280;18524;45.190;5.732;2023-04-04T09:22:49;99250.53;;;9.81;55.56
15670;BME280;18524;45.190;5.732;2023-04-04T09:27:39;99246.25;;;9.80;57.69
15670;BME280;18524;45.190;5.732;2023-04-04T09:32:33;99260.56;;;9.87;55.70
15670;BME280;18524;45.190;5.732;2023-04-04T09:37:23;99261.03;;;9.92;55.57
15670;BME280;18524;45.190;5.732;2023-04-04T09:42:14;99262.69;;;9.93;55.51
15670;BME280;18524;45.190;5.732;2023-04-04T09:47:21;99263.31;;;9.96;56.56
15670;BME280;18524;45.190;5.732;2023-04-04T09:52:19;99273.66;;;9.98;55.56
15670;BME280;18524;45.190;5.732;2023-04-04T09:57:10;99269.75;;;10.03;57.03
15670;BME280;18524;45.190;5.732;2023-04-04T10:02:01;99275.50;;;10.09;56.35
15670;BME280;18524;45.190;5.732;2023-04-04T10:06:52;99271.53;;;10.03;54.48
15670;BME280;18524;45.190;5.732;2023-04-04T10:11:43;99282.44;;;9.75;54.82
15670;BME280;18524;45.190;5.732;2023-04-04T10:16:33;99280.78;;;9.50;55.26
15670;BME280;18524;45.190;5.732;2023-04-04T10:21:26;99294.38;;;9.55;55.05
15670;BME280;18524;45.190;5.732;2023-04-04T10:26:17;99289.47;;;9.26;55.30
15670;BME280;18524;45.190;5.732;2023-04-04T10:36:11;99291.28;;;9.61;56.42
15670;BME280;18524;45.190;5.732;2023-04-04T10:41:03;99290.63;;;9.70;56.45
15670;BME280;18524;45.190;5.732;2023-04-04T10:46:00;99294.94;;;9.71;55.44
15670;BME280;18524;45.190;5.732;2023-04-04T10:50:55;99299.03;;;9.62;56.11
15670;BME280;18524;45.190;5.732;2023-04-04T10:55:47;99307.53;;;9.42;56.31
15670;BME280;18524;45.190;5.732;2023-04-04T11:00:51;99306.31;;;9.35;56.90
15670;BME280;18524;45.190;5.732;2023-04-04T11:05:44;99304.75;;;9.32;55.64
15670;BME280;18524;45.190;5.732;2023-04-04T11:10:40;99295.97;;;9.33;56.53
15670;BME280;18524;45.190;5.732;2023-04-04T11:15:58;99291.16;;;9.51;56.53
15670;BME280;18524;45.190;5.732;2023-04-04T11:20:54;99285.72;;;9.65;55.96
15670;BME280;18524;45.190;5.732;2023-04-04T11:30:44;99281.94;;;9.69;55.94
15670;BME280;18524;45.190;5.732;2023-04-04T11:35:39;99282.84;;;9.57;55.16
15670;BME280;18524;45.190;5.732;2023-04-04T11:40:35;99291.19;;;9.62;55.79
15670;BME280;18524;45.190;5.732;2023-04-04T11:45:25;99285.94;;;9.62;56.76
15670;BME280;18524;45.190;5.732;2023-04-04T11:50:18;99287.59;;;9.52;56.57
15670;BME280;18524;45.190;5.732;2023-04-04T11:55:19;99291.41;;;9.59;57.13
15670;BME280;18524;45.190;5.732;2023-04-04T12:00:11;99294.84;;;9.49;57.46
15670;BME280;18524;45.190;5.732;2023-04-04T12:05:04;99284.63;;;9.57;57.99
15670;BME280;18524;45.190;5.732;2023-04-04T12:09:56;99283.88;;;9.79;56.08
15670;BME280;18524;45.190;5.732;2023-04-04T12:14:47;99292.22;;;9.95;56.26
15670;BME280;18524;45.190;5.732;2023-04-04T12:19:39;99284.59;;;9.81;55.91
15670;BME280;18524;45.190;5.732;2023-04-04T12:24:29;99290.53;;;9.83;56.00
15670;BME280;18524;45.190;5.732;2023-04-04T12:29:21;99281.84;;;9.82;55.55
15670;BME280;18524;45.190;5.732;2023-04-04T12:34:22;99278.53;;;9.80;55.90
15670;BME280;18524;45.190;5.732;2023-04-04T12:39:15;99286.13;;;9.72;55.83
15670;BME280;18524;45.190;5.732;2023-04-04T12:44:06;99280.41;;;9.78;56.53
15670;BME280;18524;45.190;5.732;2023-04-04T12:48:59;99289.34;;;9.76;56.79
15670;BME280;18524;45.190;5.732;2023-04-04T12:53:51;99287.31;;;9.79;55.86
15670;BME280;18524;45.190;5.732;2023-04-04T12:58:45;99278.78;;;9.99;55.29
15670;BME280;18524;45.190;5.732;2023-04-04T13:03:37;99280.97;;;10.17;54.49
15670;BME280;18524;45.190;5.732;2023-04-04T13:08:27;99281.94;;;10.38;53.57
15670;BME280;18524;45.190;5.732;2023-04-04T13:18:30;99261.25;;;10.46;53.94
15670;BME280;18524;45.190;5.732;2023-04-04T13:23:22;99255.50;;;10.52;53.03
15670;BME280;18524;45.190;5.732;2023-04-04T13:28:12;99254.91;;;10.49;54.38
15670;BME280;18524;45.190;5.732;2023-04-04T13:33:03;99248.00;;;10.48;54.33
15670;BME280;18524;45.190;5.732;2023-04-04T13:37:54;99249.31;;;10.53;52.59
15670;BME280;18524;45.190;5.732;2023-04-04T13:42:44;99237.59;;;10.69;52.33
15670;BME280;18524;45.190;5.732;2023-04-04T13:47:35;99225.91;;;10.84;52.27
15670;BME280;18524;45.190;5.732;2023-04-04T13:52:25;99222.94;;;11.09;51.77
15670;BME280;18524;45.190;5.732;2023-04-04T13:57:16;99220.75;;;11.25;52.42
15670;BME280;18524;45.190;5.732;2023-04-04T14:02:06;99212.69;;;11.38;51.85
15670;BME280;18524;45.190;5.732;2023-04-04T14:06:56;99205.28;;;11.11;50.96
15670;BME280;18524;45.190;5.732;2023-04-04T14:11:47;99199.56;;;11.17;50.93
15670;BME280;18524;45.190;5.732;2023-04-04T14:16:37;99198.53;;;11.30;50.32
15670;BME280;18524;45.190;5.732;2023-04-04T14:21:28;99195.03;;;11.61;52.46
15670;BME280;18524;45.190;5.732;2023-04-04T14:26:18;99190.53;;;11.73;48.85
15670;BME280;18524;45.190;5.732;2023-04-04T14:31:08;99184.56;;;11.71;49.04
15670;BME280;18524;45.190;5.732;2023-04-04T14:35:59;99186.56;;;11.78;51.77
15670;BME280;18524;45.190;5.732;2023-04-04T14:40:49;99182.25;;;11.98;52.32
15670;BME280;18524;45.190;5.732;2023-04-04T14:45:40;99180.41;;;11.89;48.37
15670;BME280;18524;45.190;5.732;2023-04-04T14:50:30;99178.22;;;11.73;48.69
15670;BME280;18524;45.190;5.732;2023-04-04T14:55:21;99166.44;;;11.68;48.79
15670;BME280;18524;45.190;5.732;2023-04-04T15:00:12;99156.63;;;11.70;49.57
15670;BME280;18524;45.190;5.732;2023-04-04T15:05:05;99159.38;;;11.89;48.12
15670;BME280;18524;45.190;5.732;2023-04-04T15:09:55;99155.34;;;12.15;47.09
15670;BME280;18524;45.190;5.732;2023-04-04T15:14:47;99150.09;;;12.15;47.35
15670;BME280;18524;45.190;5.732;2023-04-04T15:19:37;99154.75;;;12.42;49.61
15670;BME280;18524;45.190;5.732;2023-04-04T15:24:27;99144.09;;;12.63;47.17
15670;BME280;18524;45.190;5.732;2023-04-04T15:29:18;99148.84;;;12.69;47.02
15670;BME280;18524;45.190;5.732;2023-04-04T15:34:08;99132.22;;;12.78;47.13
15670;BME280;18524;45.190;5.732;2023-04-04T15:38:59;99129.72;;;12.87;47.19
15670;BME280;18524;45.190;5.732;2023-04-04T15:43:50;99131.66;;;12.84;46.45
15670;BME280;18524;45.190;5.732;2023-04-04T15:48:40;99125.16;;;12.89;47.76
15670;BME280;18524;45.190;5.732;2023-04-04T15:53:31;99126.25;;;12.96;47.46
15670;BME280;18524;45.190;5.732;2023-04-04T15:58:22;99120.59;;;12.91;47.70
15670;BME280;18524;45.190;5.732;2023-04-04T16:03:13;99122.38;;;13.00;46.84
15670;BME280;18524;45.190;5.732;2023-04-04T16:08:03;99128.06;;;12.95;46.29
15670;BME280;18524;45.190;5.732;2023-04-04T16:12:54;99125.84;;;12.91;45.51
15670;BME280;18524;45.190;5.732;2023-04-04T16:17:44;99123.50;;;12.88;47.36
15670;BME280;18524;45.190;5.732;2023-04-04T16:22:35;99123.22;;;12.81;47.75
15670;BME280;18524;45.190;5.732;2023-04-04T16:27:26;99123.63;;;12.76;47.16
15670;BME280;18524;45.190;5.732;2023-04-04T16:32:16;99121.56;;;12.70;47.23
15670;BME280;18524;45.190;5.732;2023-04-04T16:37:07;99119.47;;;12.64;45.75
15670;BME280;18524;45.190;5.732;2023-04-04T16:41:58;99115.28;;;12.62;46.44
15670;BME280;18524;45.190;5.732;2023-04-04T16:46:49;99107.13;;;12.55;47.31
15670;BME280;18524;45.190;5.732;2023-04-04T16:51:39;99113.63;;;12.41;48.50
15670;BME280;18524;45.190;5.732;2023-04-04T16:56:30;99116.66;;;12.37;48.39
15670;BME280;18524;45.190;5.732;2023-04-04T17:01:20;99109.19;;;12.32;49.44
15670;BME280;18524;45.190;5.732;2023-04-04T17:06:12;99115.97;;;12.35;49.54
15670;BME280;18524;45.190;5.732;2023-04-04T17:11:02;99110.97;;;12.32;48.39
15670;BME280;18524;45.190;5.732;2023-04-04T17:15:53;99122.75;;;12.28;48.88
15670;BME280;18524;45.190;5.732;2023-04-04T17:20:43;99116.25;;;12.32;48.56
15670;BME280;18524;45.190;5.732;2023-04-04T17:25:34;99128.00;;;12.28;49.61
15670;BME280;18524;45.190;5.732;2023-04-04T17:30:24;99121.03;;;12.17;49.03
15670;BME280;18524;45.190;5.732;2023-04-04T17:35:15;99123.38;;;12.10;49.52
15670;BME280;18524;45.190;5.732;2023-04-04T17:40:07;99117.41;;;12.08;49.23
15670;BME280;18524;45.190;5.732;2023-04-04T17:44:57;99133.59;;;12.04;49.32
15670;BME280;18524;45.190;5.732;2023-04-04T17:49:48;99121.69;;;12.00;47.29
15670;BME280;18524;45.190;5.732;2023-04-04T17:54:40;99119.88;;;12.00;50.95
15670;BME280;18524;45.190;5.732;2023-04-04T17:59:30;99123.38;;;11.80;50.75
15670;BME280;18524;45.190;5.732;2023-04-04T18:04:21;99131.50;;;11.77;50.74
15670;BME280;18524;45.190;5.732;2023-04-04T18:09:11;99133.69;;;11.72;48.54
15670;BME280;18524;45.190;5.732;2023-04-04T18:14:02;99137.38;;;11.59;48.88
15670;BME280;18524;45.190;5.732;2023-04-04T18:18:53;99141.66;;;11.61;49.86
15670;BME280;18524;45.190;5.732;2023-04-04T18:23:43;99137.81;;;11.65;47.79
15670;BME280;18524;45.190;5.732;2023-04-04T18:28:33;99152.81;;;11.53;50.24
15670;BME280;18524;45.190;5.732;2023-04-04T18:33:24;99162.72;;;11.49;50.45
15670;BME280;18524;45.190;5.732;2023-04-04T18:38:15;99158.25;;;11.40;48.29
15670;BME280;18524;45.190;5.732;2023-04-04T18:43:06;99163.06;;;11.35;47.90
15670;BME280;18524;45.190;5.732;2023-04-04T18:47:56;99168.69;;;11.31;49.55
15670;BME280;18524;45.190;5.732;2023-04-04T18:52:47;99180.16;;;11.30;48.54
15670;BME280;18524;45.190;5.732;2023-04-04T18:57:37;99179.31;;;11.29;47.60
15670;BME280;18524;45.190;5.732;2023-04-04T19:02:28;99176.88;;;11.16;48.36
15670;BME280;18524;45.190;5.732;2023-04-04T19:07:19;99186.56;;;11.16;47.80
15670;BME280;18524;45.190;5.732;2023-04-04T19:12:12;99191.06;;;11.14;49.38
15670;BME280;18524;45.190;5.732;2023-04-04T19:17:02;99195.59;;;11.12;50.12
15670;BME280;18524;45.190;5.732;2023-04-04T19:21:53;99197.06;;;11.16;48.83
15670;BME280;18524;45.190;5.732;2023-04-04T19:26:43;99200.78;;;11.02;51.78
15670;BME280;18524;45.190;5.732;2023-04-04T19:31:34;99206.88;;;11.03;52.20
15670;BME280;18524;45.190;5.732;2023-04-04T19:36:25;99209.28;;;10.94;51.98
15670;BME280;18524;45.190;5.732;2023-04-04T19:46:09;99214.78;;;10.91;52.37
15670;BME280;18524;45.190;5.732;2023-04-04T19:56:13;99234.34;;;10.76;51.82
15670;BME280;18524;45.190;5.732;2023-04-04T20:01:06;99232.47;;;10.67;51.65
15670;BME280;18524;45.190;5.732;2023-04-04T20:05:58;99239.88;;;10.62;48.69
15670;BME280;18524;45.190;5.732;2023-04-04T20:10:52;99234.63;;;10.62;49.83
15670;BME280;18524;45.190;5.732;2023-04-04T20:20:55;99244.44;;;10.49;48.16
15670;BME280;18524;45.190;5.732;2023-04-04T20:25:46;99235.72;;;10.48;48.23
15670;BME280;18524;45.190;5.732;2023-04-04T20:30:36;99245.50;;;10.35;48.10
15670;BME280;18524;45.190;5.732;2023-04-04T20:35:26;99247.03;;;10.38;45.99
15670;BME280;18524;45.190;5.732;2023-04-04T20:40:37;99246.31;;;10.36;45.53
15670;BME280;18524;45.190;5.732;2023-04-04T20:45:43;99250.25;;;10.30;45.57
15670;BME280;18524;45.190;5.732;2023-04-04T20:55:31;99251.69;;;10.23;45.59
15670;BME280;18524;45.190;5.732;2023-04-04T21:05:31;99269.88;;;10.13;47.65
15670;BME280;18524;45.190;5.732;2023-04-04T21:11:08;99271.31;;;10.06;49.49
15670;BME280;18524;45.190;5.732;2023-04-04T21:15:34;99273.22;;;10.15;46.30
15670;BME280;18524;45.190;5.732;2023-04-04T21:25:43;99293.56;;;10.00;45.64
15670;BME280;18524;45.190;5.732;2023-04-04T21:30:41;99295.56;;;9.97;48.07
15670;BME280;18524;45.190;5.732;2023-04-04T21:35:59;99291.50;;;9.93;44.01
15670;BME280;18524;45.190;5.732;2023-04-04T21:40:50;99298.91;;;9.99;45.85
15670;BME280;18524;45.190;5.732;2023-04-04T21:45:40;99304.13;;;9.88;44.98
15670;BME280;18524;45.190;5.732;2023-04-04T21:50:30;99307.47;;;9.90;44.19
15670;BME280;18524;45.190;5.732;2023-04-04T21:55:21;99316.00;;;9.69;45.84
15670;BME280;18524;45.190;5.732;2023-04-04T22:00:12;99311.06;;;9.65;45.94
15670;BME280;18524;45.190;5.732;2023-04-04T22:05:02;99324.28;;;9.63;45.82
15670;BME280;18524;45.190;5.732;2023-04-04T22:09:53;99334.25;;;9.58;48.46
15670;BME280;18524;45.190;5.732;2023-04-04T22:14:43;99328.69;;;9.63;46.30
15670;BME280;18524;45.190;5.732;2023-04-04T22:19:34;99329.94;;;9.46;48.64
15670;BME280;18524;45.190;5.732;2023-04-04T22:24:32;99318.00;;;9.42;49.74
15670;BME280;18524;45.190;5.732;2023-04-04T22:29:23;99322.69;;;9.50;50.25
15670;BME280;18524;45.190;5.732;2023-04-04T22:34:13;99322.41;;;9.42;46.21
15670;BME280;18524;45.190;5.732;2023-04-04T22:39:04;99331.88;;;9.55;44.04
15670;BME280;18524;45.190;5.732;2023-04-04T22:43:55;99332.78;;;9.43;46.72
15670;BME280;18524;45.190;5.732;2023-04-04T22:48:46;99328.59;;;9.40;47.40
15670;BME280;18524;45.190;5.732;2023-04-04T22:53:36;99334.28;;;9.34;47.25
15670;BME280;18524;45.190;5.732;2023-04-04T22:58:27;99344.63;;;9.36;48.71
15670;BME280;18524;45.190;5.732;2023-04-04T23:03:17;99354.59;;;9.31;47.64
15670;BME280;18524;45.190;5.732;2023-04-04T23:08:07;99358.22;;;9.04;51.07
15670;BME280;18524;45.190;5.732;2023-04-04T23:12:58;99355.03;;;8.75;51.98
15670;BME280;18524;45.190;5.732;2023-04-04T23:17:48;99373.97;;;8.79;55.81
15670;BME280;18524;45.190;5.732;2023-04-04T23:22:40;99364.88;;;8.72;57.75
15670;BME280;18524;45.190;5.732;2023-04-04T23:27:30;99364.56;;;8.64;57.06
15670;BME280;18524;45.190;5.732;2023-04-04T23:32:21;99367.50;;;8.59;54.75
15670;BME280;18524;45.190;5.732;2023-04-04T23:37:12;99364.56;;;8.38;54.81
15670;BME280;18524;45.190;5.732;2023-04-04T23:42:02;99357.03;;;8.34;54.74
15670;BME280;18524;45.190;5.732;2023-04-04T23:46:53;99370.63;;;8.52;57.78
15670;BME280;18524;45.190;5.732;2023-04-04T23:51:43;99367.19;;;8.51;60.14
15670;BME280;18524;45.190;5.732;2023-04-04T23:56:35;99365.19;;;8.42;58.94
